Time;durP1;ratioP1;P1;durP2;ratioP2;P2;SDS_P1;SDS_P2;PMS_P1;PMS_P2;Temp;Humidity;BMP_temperature;BMP_pressure;BME280_temperature;BME280_humidity;BME280_pressure;Samples;Min_cycle;Max_cycle;Signal;HPM_P1;HPM_P2
2022/05/27 00:00:19;;;;;;;2.17;0.88;;;20.30;62.00;;;;;;4979044;28;20043;-14
2022/05/27 00:02:46;;;;;;;0.70;0.60;;;20.30;62.00;;;;;;4971297;28;20515;-15
2022/05/27 00:05:12;;;;;;;1.23;0.73;;;20.30;61.80;;;;;;4960276;28;20043;-14
2022/05/27 00:07:37;;;;;;;1.30;0.77;;;20.30;61.90;;;;;;4959112;28;20051;-15
2022/05/27 00:10:03;;;;;;;1.25;0.63;;;20.30;62.10;;;;;;4959836;28;20055;-14
2022/05/27 00:12:29;;;;;;;1.73;0.93;;;20.30;62.00;;;;;;4973031;28;20050;-14
2022/05/27 00:14:55;;;;;;;1.00;0.63;;;20.30;62.00;;;;;;4978957;28;20054;-15
2022/05/27 00:17:20;;;;;;;0.90;0.80;;;20.30;62.10;;;;;;4977263;28;20046;-16
2022/05/27 00:19:46;;;;;;;1.23;0.70;;;20.30;62.00;;;;;;4978434;28;20046;-15
2022/05/27 00:22:11;;;;;;;1.65;1.00;;;20.30;62.10;;;;;;4978142;28;20043;-14
2022/05/27 00:24:37;;;;;;;0.60;0.60;;;20.30;62.00;;;;;;4978143;28;20042;-14
2022/05/27 00:27:05;;;;;;;1.20;0.60;;;20.30;62.10;;;;;;4978536;28;20130;-15
2022/05/27 00:29:31;;;;;;;1.38;0.75;;;20.30;62.10;;;;;;4976675;28;20049;-14
2022/05/27 00:31:56;;;;;;;4.60;0.82;;;20.20;62.10;;;;;;4970009;28;20047;-14
2022/05/27 00:34:22;;;;;;;0.75;0.65;;;20.30;62.10;;;;;;4976801;28;20102;-15
2022/05/27 00:36:47;;;;;;;0.75;0.60;;;20.30;62.00;;;;;;4977159;28;20042;-15
2022/05/27 00:39:13;;;;;;;1.05;0.60;;;20.30;62.00;;;;;;4984030;28;20046;-14
2022/05/27 00:41:41;;;;;;;1.67;0.90;;;20.20;62.20;;;;;;4973396;28;20110;-15
2022/05/27 00:44:07;;;;;;;2.10;0.90;;;20.20;62.20;;;;;;4977610;28;20122;-14
2022/05/27 00:46:33;;;;;;;2.28;1.00;;;20.20;62.20;;;;;;4977055;28;20082;-14
2022/05/27 00:49:09;;;;;;;1.90;0.82;;;20.20;62.10;;;;;;4976030;28;20539;-15
2022/05/27 00:51:43;;;;;;;1.35;0.68;;;20.20;62.10;;;;;;4957648;28;20581;-14
2022/05/27 00:54:10;;;;;;;0.90;0.50;;;20.20;62.20;;;;;;4955622;28;20047;-14
2022/05/27 00:56:39;;;;;;;1.00;0.63;;;20.20;62.00;;;;;;4977202;28;20126;-14
2022/05/27 00:59:13;;;;;;;1.63;0.82;;;20.20;62.30;;;;;;4976405;28;20121;-16
2022/05/27 01:01:38;;;;;;;1.60;0.80;;;20.20;62.00;;;;;;4975345;28;20045;-14
2022/05/27 01:04:04;;;;;;;1.48;0.82;;;20.20;62.10;;;;;;4977254;28;20047;-15
2022/05/27 01:06:29;;;;;;;2.08;0.93;;;20.20;62.10;;;;;;4982053;28;20088;-14
2022/05/27 01:08:55;;;;;;;1.17;0.70;;;20.20;62.10;;;;;;4978593;28;20505;-15
2022/05/27 01:11:29;;;;;;;0.98;0.80;;;20.20;62.10;;;;;;4976944;28;20115;-14
2022/05/27 01:13:57;;;;;;;;;;;20.20;62.40;;;;;;4977872;28;20121;-14
2022/05/27 01:16:42;;;;;;;0.98;0.88;;;20.20;62.10;;;;;;4976722;28;19932;-14
2022/05/27 01:22:23;;;;;;;2.08;0.90;;;20.20;62.30;;;;;;4971120;28;20042;-15
2022/05/27 01:25:29;;;;;;;2.20;0.90;;;20.20;62.10;;;;;;4976540;28;20169;-14
2022/05/27 01:28:03;;;;;;;0.90;0.70;;;20.20;62.30;;;;;;4965706;28;20046;-14
2022/05/27 01:30:44;;;;;;;1.00;0.60;;;20.20;62.30;;;;;;4971541;28;20085;-14
2022/05/27 01:33:28;;;;;;;3.13;1.00;;;20.20;62.10;;;;;;4973076;28;20094;-14
2022/05/27 01:35:56;;;;;;;1.45;0.77;;;20.10;62.30;;;;;;4971734;28;20046;-15
2022/05/27 01:38:39;;;;;;;1.38;0.70;;;20.20;62.20;;;;;;4976048;28;20036;-15
2022/05/27 01:41:09;;;;;;;1.02;0.80;;;20.20;62.10;;;;;;4989096;28;20053;-14
2022/05/27 01:43:41;;;;;;;2.35;0.80;;;20.20;62.10;;;;;;4967937;28;20102;-14
2022/05/27 01:46:13;;;;;;;0.93;0.60;;;20.20;62.00;;;;;;4974546;28;20535;-16
2022/05/27 01:48:47;;;;;;;2.00;0.82;;;20.10;62.00;;;;;;4971191;28;20058;-14
2022/05/27 01:51:15;;;;;;;1.20;0.85;;;20.10;62.00;;;;;;4957940;28;20127;-15
2022/05/27 01:54:04;;;;;;;1.92;0.93;;;20.20;62.10;;;;;;4977967;28;20038;-14
2022/05/27 01:56:52;;;;;;;1.63;1.05;;;20.10;62.20;;;;;;4970626;28;20046;-14
2022/05/27 01:59:32;;;;;;;1.58;1.13;;;20.10;62.20;;;;;;4979555;28;20038;-15
2022/05/27 02:02:03;;;;;;;1.42;0.77;;;20.10;62.10;;;;;;4968192;28;20488;-13
2022/05/27 02:05:02;;;;;;;1.08;0.77;;;20.20;62.10;;;;;;4980277;28;20031;-14
2022/05/27 02:07:48;;;;;;;2.58;0.93;;;20.10;62.10;;;;;;4974372;28;20043;-16
2022/05/27 02:10:39;;;;;;;1.17;0.60;;;20.10;62.10;;;;;;4982114;28;20039;-14
2022/05/27 02:13:09;;;;;;;0.88;0.63;;;20.10;62.10;;;;;;4963304;28;20066;-16
2022/05/27 02:15:37;;;;;;;0.93;0.85;;;20.20;62.00;;;;;;4955394;28;20031;-14
2022/05/27 02:18:09;;;;;;;1.23;0.70;;;20.10;61.90;;;;;;4972914;28;20074;-14
2022/05/27 02:20:40;;;;;;;0.98;0.70;;;20.10;62.00;;;;;;4981790;28;20117;-14
2022/05/27 02:23:11;;;;;;;1.70;0.70;;;20.10;62.20;;;;;;4975268;28;20063;-14
2022/05/27 02:25:38;;;;;;;0.95;0.80;;;20.10;62.00;;;;;;4972785;28;20042;-15
2022/05/27 02:28:08;;;;;;;2.28;0.90;;;20.10;62.30;;;;;;4958652;28;20534;-14
2022/05/27 02:30:35;;;;;;;1.00;0.73;;;20.10;62.00;;;;;;4981320;28;20515;-13
2022/05/27 02:35:50;;;;;;;1.35;0.85;;;20.10;62.10;;;;;;4974667;28;20130;-15
2022/05/27 02:38:16;;;;;;;1.20;0.90;;;20.10;62.00;;;;;;4976282;28;20093;-16
2022/05/27 02:40:54;;;;;;;1.52;0.80;;;20.10;62.20;;;;;;4969790;28;20043;-14
2022/05/27 02:43:43;;;;;;;2.28;0.60;;;20.10;61.90;;;;;;4969898;28;20051;-14
2022/05/27 02:46:34;;;;;;;1.50;0.75;;;20.10;62.00;;;;;;4957476;28;20122;-15
2022/05/27 02:48:59;;;;;;;1.65;0.90;;;20.10;62.00;;;;;;4973833;28;20050;-14
2022/05/27 02:51:35;;;;;;;0.70;0.70;;;20.10;62.10;;;;;;4982344;28;20039;-15
2022/05/27 02:54:28;;;;;;;1.08;0.75;;;20.10;62.00;;;;;;4981960;28;20043;-14
2022/05/27 02:57:04;;;;;;;1.00;0.80;;;20.10;62.10;;;;;;4982011;28;20043;-14
2022/05/27 02:59:30;;;;;;;1.58;1.00;;;20.10;62.00;;;;;;4965787;28;20035;-14
2022/05/27 03:02:03;;;;;;;0.80;0.77;;;20.00;62.20;;;;;;4977005;28;20046;-14
2022/05/27 03:04:29;;;;;;;1.05;0.80;;;20.00;62.10;;;;;;4981805;28;20039;-15
2022/05/27 03:07:24;;;;;;;1.27;0.70;;;20.10;61.90;;;;;;4982147;28;20046;-14
2022/05/27 03:10:08;;;;;;;1.08;0.80;;;20.00;62.00;;;;;;4959106;28;20097;-13
2022/05/27 03:12:59;;;;;;;1.65;0.88;;;20.10;61.90;;;;;;4976433;28;20051;-15
2022/05/27 03:15:27;;;;;;;1.38;0.80;;;20.10;61.90;;;;;;4989325;28;20110;-14
2022/05/27 03:18:02;;;;;;;1.35;1.05;;;20.10;61.80;;;;;;4979300;28;20043;-14
2022/05/27 03:20:40;;;;;;;0.90;0.70;;;20.00;61.70;;;;;;4980079;28;20049;-14
2022/05/27 03:23:50;;;;;;;1.55;0.85;;;20.10;61.90;;;;;;4981966;28;20082;-14
2022/05/27 03:26:48;;;;;;;1.48;0.85;;;20.00;61.80;;;;;;4967352;28;20051;-14
2022/05/27 03:29:26;;;;;;;1.38;0.98;;;20.10;61.50;;;;;;4961361;28;20494;-14
2022/05/27 03:32:04;;;;;;;1.02;0.70;;;20.00;61.70;;;;;;4975367;28;20507;-14
2022/05/27 03:34:43;;;;;;;1.10;0.88;;;20.00;61.50;;;;;;4982517;28;20101;-14
2022/05/27 03:37:26;;;;;;;1.33;0.88;;;20.00;61.60;;;;;;5012738;28;20043;-15
2022/05/27 03:40:01;;;;;;;1.30;0.80;;;20.00;61.60;;;;;;4980615;28;20063;-15
2022/05/27 03:42:27;;;;;;;1.20;0.85;;;20.00;61.60;;;;;;4993524;28;20045;-15
2022/05/27 03:45:15;;;;;;;2.15;0.90;;;20.00;61.40;;;;;;4964314;28;20504;-14
2022/05/27 03:47:41;;;;;;;1.27;0.90;;;20.00;61.50;;;;;;4979979;28;20035;-15
2022/05/27 03:50:09;;;;;;;1.52;0.90;;;20.00;61.50;;;;;;4982463;28;20049;-14
2022/05/27 03:52:37;;;;;;;1.20;1.02;;;20.10;61.50;;;;;;4976770;28;20500;-16
2022/05/27 03:55:04;;;;;;;0.90;0.60;;;20.10;62.30;;;;;;4982045;28;20073;-15
2022/05/27 03:57:30;;;;;;;1.40;0.70;;;20.00;61.70;;;;;;4978804;28;20046;-14
2022/05/27 03:59:55;;;;;;;1.42;1.10;;;20.00;61.70;;;;;;4978651;28;20492;-15
2022/05/27 04:02:21;;;;;;;1.45;0.80;;;20.00;61.60;;;;;;4974133;28;20052;-15
2022/05/27 04:04:46;;;;;;;1.00;0.52;;;20.00;61.50;;;;;;4977909;28;20105;-13
2022/05/27 04:07:12;;;;;;;1.23;0.60;;;20.00;61.40;;;;;;4978581;28;20046;-14
2022/05/27 04:09:37;;;;;;;0.77;0.68;;;20.00;61.40;;;;;;4978611;28;20039;-15
2022/05/27 04:12:04;;;;;;;0.90;0.70;;;20.00;61.30;;;;;;4977074;28;20535;-14
2022/05/27 04:14:31;;;;;;;0.88;0.60;;;20.00;61.50;;;;;;4978830;28;20488;-15
2022/05/27 04:17:27;;;;;;;2.22;0.80;;;20.00;61.40;;;;;;4978085;28;20039;-15
2022/05/27 04:19:43;;;;;;;1.20;0.85;;;20.00;61.50;;;;;;4977424;28;20043;-15
2022/05/27 04:22:08;;;;;;;0.95;0.75;;;20.00;61.50;;;;;;4978760;28;20129;-15
2022/05/27 04:24:34;;;;;;;0.50;0.47;;;20.00;61.40;;;;;;4978383;28;20042;-15
2022/05/27 04:27:06;;;;;;;0.93;0.82;;;20.00;61.50;;;;;;4978063;28;20081;-15
2022/05/27 04:29:31;;;;;;;0.95;0.70;;;20.00;61.40;;;;;;4977855;28;20043;-15
2022/05/27 04:31:57;;;;;;;1.58;0.77;;;20.00;61.50;;;;;;4978146;28;20134;-14
2022/05/27 04:34:23;;;;;;;0.55;0.43;;;20.00;61.30;;;;;;4977610;28;20045;-15
2022/05/27 04:36:48;;;;;;;0.98;0.60;;;20.00;61.30;;;;;;4977018;28;20043;-15
2022/05/27 04:39:16;;;;;;;1.20;0.70;;;20.00;61.30;;;;;;4977518;28;20066;-13
2022/05/27 04:41:41;;;;;;;1.88;1.00;;;20.00;61.30;;;;;;4977283;28;20050;-14
2022/05/27 04:44:07;;;;;;;1.13;0.65;;;20.00;61.40;;;;;;4976904;28;20047;-14
2022/05/27 04:46:33;;;;;;;1.08;0.52;;;20.00;61.40;;;;;;4978304;28;20054;-14
2022/05/27 04:48:58;;;;;;;1.67;0.75;;;20.00;61.50;;;;;;4977690;28;20039;-13
2022/05/27 04:51:24;;;;;;;0.60;0.55;;;19.90;61.30;;;;;;4976287;28;20053;-13
2022/05/27 04:53:49;;;;;;;1.83;0.68;;;19.90;61.40;;;;;;4977039;28;20039;-13
2022/05/27 04:56:15;;;;;;;0.90;0.60;;;19.90;61.30;;;;;;4977725;28;20066;-14
2022/05/27 04:58:41;;;;;;;0.95;0.50;;;19.90;61.30;;;;;;4972949;28;20086;-14
2022/05/27 05:01:06;;;;;;;1.30;0.40;;;20.00;61.30;;;;;;4975224;28;20043;-14
2022/05/27 05:03:32;;;;;;;0.50;0.43;;;19.90;61.30;;;;;;4978189;28;20512;-13
2022/05/27 05:05:57;;;;;;;2.28;0.70;;;19.90;61.30;;;;;;4976434;28;20048;-13
2022/05/27 05:08:28;;;;;;;1.25;0.68;;;19.90;61.20;;;;;;4974547;28;20050;-14
2022/05/27 05:10:53;;;;;;;1.92;0.82;;;20.00;62.40;;;;;;4975980;28;20051;-14
2022/05/27 05:13:19;;;;;;;1.38;0.92;;;19.90;61.70;;;;;;4632958;28;10001405;-14
2022/05/27 05:15:45;;;;;;;0.73;0.70;;;19.70;61.50;;;;;;4974091;28;20077;-15
2022/05/27 05:18:10;;;;;;;2.05;0.98;;;19.70;61.50;;;;;;4971832;28;20047;-13
2022/05/27 05:20:36;;;;;;;1.20;0.80;;;19.60;61.70;;;;;;4973897;28;20583;-14
2022/05/27 05:23:01;;;;;;;2.40;1.08;;;19.60;61.90;;;;;;4972170;28;20061;-13
2022/05/27 05:25:28;;;;;;;1.33;0.70;;;19.50;61.80;;;;;;4973120;28;20046;-14
2022/05/27 05:27:54;;;;;;;1.50;0.90;;;19.50;61.90;;;;;;4972692;28;20104;-14
2022/05/27 05:30:21;;;;;;;2.33;0.60;;;19.40;62.00;;;;;;4974598;28;20050;-14
2022/05/27 05:32:47;;;;;;;1.73;0.80;;;19.40;62.10;;;;;;4972045;28;20050;-13
2022/05/27 05:35:13;;;;;;;1.48;1.00;;;19.30;62.20;;;;;;4981690;28;20050;-14
2022/05/27 05:37:39;;;;;;;2.83;1.00;;;19.40;62.00;;;;;;4968439;28;20051;-13
2022/05/27 05:40:05;;;;;;;1.73;0.85;;;19.40;62.10;;;;;;4973083;28;20381;-13
2022/05/27 05:42:31;;;;;;;1.52;0.68;;;19.30;62.30;;;;;;4973433;28;20043;-14
2022/05/27 05:44:59;;;;;;;2.60;0.90;;;19.30;62.50;;;;;;4961737;28;20101;-13
2022/05/27 05:47:25;;;;;;;1.63;0.80;;;19.20;62.50;;;;;;4973725;28;20056;-13
2022/05/27 05:49:50;;;;;;;1.33;0.70;;;19.20;62.90;;;;;;4972425;28;20113;-15
2022/05/27 05:52:16;;;;;;;1.38;0.80;;;19.20;63.00;;;;;;4972112;28;20046;-13
2022/05/27 05:54:42;;;;;;;1.67;0.70;;;19.10;63.10;;;;;;4972105;28;20034;-14
2022/05/27 05:57:07;;;;;;;1.70;0.85;;;19.00;63.30;;;;;;4971666;28;20051;-13
2022/05/27 05:59:34;;;;;;;0.90;0.60;;;19.00;63.60;;;;;;4972368;28;20050;-15
2022/05/27 06:02:00;;;;;;;0.90;0.65;;;19.00;63.50;;;;;;4971309;28;20090;-14
2022/05/27 06:04:26;;;;;;;1.23;0.75;;;19.00;63.60;;;;;;4972085;28;20042;-14
2022/05/27 06:06:52;;;;;;;3.05;0.60;;;19.00;63.70;;;;;;4966070;28;20038;-13
2022/05/27 06:09:19;;;;;;;1.52;0.75;;;19.00;63.80;;;;;;4968336;28;20043;-13
2022/05/27 06:11:45;;;;;;;2.45;0.90;;;19.00;63.90;;;;;;4970995;28;20059;-13
2022/05/27 06:14:11;;;;;;;1.38;0.90;;;19.00;64.10;;;;;;4969306;28;20049;-14
2022/05/27 06:16:36;;;;;;;0.98;0.52;;;18.90;64.30;;;;;;4965367;28;20126;-14
2022/05/27 06:19:02;;;;;;;1.40;0.63;;;19.00;64.20;;;;;;4971463;28;20531;-14
2022/05/27 06:21:27;;;;;;;0.82;0.55;;;19.00;64.40;;;;;;4971319;28;20079;-13
2022/05/27 06:23:53;;;;;;;1.50;0.63;;;19.00;64.60;;;;;;4971237;28;20073;-14
2022/05/27 06:26:19;;;;;;;1.10;0.50;;;19.00;64.90;;;;;;4972329;28;20653;-14
2022/05/27 06:34:25;;;;;;;1.00;0.50;;;18.90;65.50;;;;;;4946025;28;19929;-13
2022/05/27 06:37:18;;;;;;;0.70;0.55;;;18.90;65.70;;;;;;4950185;28;20054;-13
2022/05/27 06:39:44;;;;;;;1.05;0.68;;;18.90;65.60;;;;;;4981864;28;20043;-13
2022/05/27 06:42:11;;;;;;;1.65;0.55;;;18.90;65.60;;;;;;4976040;28;20090;-15
2022/05/27 06:44:36;;;;;;;2.40;0.50;;;18.90;65.60;;;;;;4972886;28;20041;-13
2022/05/27 06:47:03;;;;;;;1.08;0.60;;;18.90;65.50;;;;;;4971805;28;20046;-13
2022/05/27 06:49:29;;;;;;;1.00;0.43;;;18.90;65.40;;;;;;4965781;28;20486;-13
2022/05/27 06:51:54;;;;;;;1.38;0.80;;;19.00;65.10;;;;;;4970865;28;20145;-13
2022/05/27 06:54:21;;;;;;;0.80;0.52;;;19.20;64.60;;;;;;4971676;28;20047;-13
2022/05/27 06:56:50;;;;;;;1.27;0.55;;;19.20;64.40;;;;;;4972071;28;20055;-15
2022/05/27 06:59:16;;;;;;;0.90;0.60;;;19.20;64.30;;;;;;4972715;28;20145;-13
2022/05/27 07:01:42;;;;;;;0.52;0.40;;;19.30;64.10;;;;;;4971644;28;20100;-14
2022/05/27 07:04:07;;;;;;;1.10;0.52;;;19.30;63.90;;;;;;4972180;28;20047;-14
2022/05/27 07:06:37;;;;;;;0.80;0.43;;;19.30;63.70;;;;;;4972286;28;20567;-13
2022/05/27 07:09:06;;;;;;;0.82;0.50;;;19.30;63.70;;;;;;4970722;28;20054;-13
2022/05/27 07:11:32;;;;;;;1.00;0.50;;;19.40;63.60;;;;;;4972991;28;20047;-14
2022/05/27 07:13:58;;;;;;;0.63;0.40;;;19.40;63.50;;;;;;4971585;28;20050;-14
2022/05/27 07:16:24;;;;;;;0.50;0.40;;;19.40;63.40;;;;;;4961772;28;20047;-14
2022/05/27 07:18:49;;;;;;;0.47;0.38;;;19.40;63.30;;;;;;4972072;28;20042;-14
2022/05/27 07:21:15;;;;;;;0.52;0.52;;;19.40;63.20;;;;;;4962647;28;20043;-15
2022/05/27 07:23:40;;;;;;;0.55;0.38;;;19.40;63.20;;;;;;4973356;28;20051;-15
2022/05/27 07:26:06;;;;;;;1.50;0.50;;;19.50;63.10;;;;;;4973684;28;20055;-14
2022/05/27 07:28:32;;;;;;;0.68;0.50;;;19.60;62.90;;;;;;4974475;28;20050;-14
2022/05/27 07:31:01;;;;;;;0.40;0.32;;;19.60;62.90;;;;;;4975407;28;20043;-14
2022/05/27 07:33:26;;;;;;;1.35;0.60;;;19.60;62.80;;;;;;4979342;28;20148;-14
2022/05/27 07:35:52;;;;;;;0.73;0.32;;;19.60;62.70;;;;;;4978608;28;20117;-15
2022/05/27 07:38:18;;;;;;;0.95;0.40;;;19.60;62.60;;;;;;4979740;28;20049;-14
2022/05/27 07:40:43;;;;;;;1.10;0.68;;;19.60;62.50;;;;;;4979588;28;20416;-14
2022/05/27 07:43:09;;;;;;;0.55;0.40;;;19.60;62.40;;;;;;4979025;28;20054;-14
2022/05/27 07:45:39;;;;;;;1.85;0.50;;;19.60;62.50;;;;;;4979769;28;20051;-15
2022/05/27 07:48:05;;;;;;;0.63;0.30;;;19.60;62.50;;;;;;4961844;28;20105;-14
2022/05/27 07:50:31;;;;;;;0.57;0.50;;;19.70;62.40;;;;;;4978890;28;20078;-15
2022/05/27 07:52:56;;;;;;;0.82;0.50;;;19.70;62.40;;;;;;4978873;28;20101;-14
2022/05/27 07:55:22;;;;;;;0.93;0.32;;;19.70;62.50;;;;;;4979055;28;20452;-14
2022/05/27 07:57:48;;;;;;;0.47;0.40;;;19.70;62.60;;;;;;4978945;28;20408;-16
2022/05/27 08:00:16;;;;;;;1.10;0.50;;;19.70;62.50;;;;;;4967083;28;20051;-14
2022/05/27 08:02:42;;;;;;;1.02;0.40;;;19.70;63.30;;;;;;4973079;28;20476;-15
2022/05/27 08:05:12;;;;;;;0.35;0.32;;;19.70;62.40;;;;;;4977989;28;20081;-15
2022/05/27 08:07:38;;;;;;;0.70;0.40;;;19.70;62.30;;;;;;4979096;28;20451;-14
2022/05/27 08:10:04;;;;;;;0.93;0.50;;;19.80;62.30;;;;;;4978293;28;20518;-14
2022/05/27 08:12:31;;;;;;;0.60;0.50;;;19.80;62.30;;;;;;4979170;28;20093;-14
2022/05/27 08:14:56;;;;;;;0.77;0.50;;;19.70;62.30;;;;;;4977763;28;20404;-15
2022/05/27 08:17:22;;;;;;;0.70;0.47;;;19.80;62.40;;;;;;4979126;28;20035;-15
2022/05/27 08:19:48;;;;;;;0.50;0.50;;;19.80;62.20;;;;;;4978948;28;20050;-15
2022/05/27 08:22:14;;;;;;;1.05;0.40;;;19.80;62.20;;;;;;4978244;28;20038;-14
2022/05/27 08:24:41;;;;;;;1.98;0.30;;;19.80;62.40;;;;;;4978990;28;20039;-14
2022/05/27 08:27:07;;;;;;;0.73;0.70;;;19.80;62.10;;;;;;4977797;28;20081;-14
2022/05/27 08:29:33;;;;;;;0.63;0.40;;;19.80;62.20;;;;;;4978860;28;20046;-14
2022/05/27 08:32:03;;;;;;;1.08;0.75;;;19.80;62.30;;;;;;4978313;28;20097;-15
2022/05/27 08:40:09;;;;;;;0.73;0.40;;;19.80;62.10;;;;;;4977885;28;20539;-14
2022/05/27 08:43:09;;;;;;;0.30;0.20;;;19.90;62.00;;;;;;4978189;28;20046;-15
2022/05/27 08:45:49;;;;;;;0.35;0.30;;;19.80;62.00;;;;;;4957300;28;20066;-14
2022/05/27 08:48:15;;;;;;;0.30;0.25;;;19.90;62.00;;;;;;4954821;28;20125;-14
2022/05/27 08:50:46;;;;;;;0.43;0.30;;;19.90;62.00;;;;;;4977227;28;20065;-14
2022/05/27 08:53:18;;;;;;;0.77;0.43;;;19.90;62.10;;;;;;4968830;28;20055;-15
2022/05/27 09:01:26;;;;;;;0.40;0.40;;;19.90;62.00;;;;;;4958628;28;20081;-15
2022/05/27 09:04:09;;;;;;;0.65;0.40;;;19.90;62.00;;;;;;4941321;28;20081;-16
2022/05/27 09:06:55;;;;;;;0.40;0.20;;;19.90;62.20;;;;;;4948565;28;20065;-14
2022/05/27 09:09:23;;;;;;;0.32;0.32;;;19.90;62.00;;;;;;4977597;28;20038;-14
2022/05/27 09:12:05;;;;;;;1.23;0.40;;;20.00;62.10;;;;;;4976686;28;20039;-14
2022/05/27 09:14:31;;;;;;;0.43;0.43;;;20.00;62.10;;;;;;4976368;28;20042;-13
2022/05/27 09:17:07;;;;;;;0.63;0.30;;;20.00;61.90;;;;;;4976714;28;20158;-13
2022/05/27 09:19:42;;;;;;;0.40;0.30;;;20.00;61.80;;;;;;4978014;28;20126;-14
2022/05/27 09:22:24;;;;;;;0.40;0.30;;;20.00;61.80;;;;;;4975747;28;20400;-14
2022/05/27 09:24:49;;;;;;;0.40;0.20;;;20.00;61.80;;;;;;4976500;28;20039;-15
2022/05/27 09:27:26;;;;;;;0.30;0.30;;;20.00;62.10;;;;;;4974870;28;20478;-15
2022/05/27 09:30:04;;;;;;;0.40;0.30;;;20.00;61.80;;;;;;4942648;28;20047;-14
2022/05/27 09:32:47;;;;;;;0.60;0.30;;;20.00;62.00;;;;;;4958105;28;20050;-14
2022/05/27 09:35:26;;;;;;;0.30;0.30;;;20.00;61.80;;;;;;4968226;28;20141;-15
2022/05/27 09:37:52;;;;;;;0.38;0.30;;;20.00;62.60;;;;;;4976364;28;20065;-15
2022/05/27 09:40:30;;;;;;;0.25;0.25;;;20.10;61.70;;;;;;4958407;28;20050;-14
2022/05/27 09:43:04;;;;;;;0.63;0.30;;;20.00;61.60;;;;;;4941177;28;20039;-15
2022/05/27 09:45:30;;;;;;;0.47;0.28;;;20.10;61.60;;;;;;4941935;28;20047;-14
2022/05/27 09:48:00;;;;;;;0.20;0.20;;;20.10;61.40;;;;;;4966800;28;20533;-15
2022/05/27 09:50:26;;;;;;;0.20;0.20;;;20.10;61.50;;;;;;4975549;28;20047;-14
2022/05/27 09:52:56;;;;;;;0.30;0.30;;;20.10;61.40;;;;;;4975952;28;20495;-14
2022/05/27 09:55:23;;;;;;;0.57;0.22;;;20.10;61.50;;;;;;4974488;28;20039;-14
2022/05/27 09:57:55;;;;;;;0.30;0.30;;;20.10;61.50;;;;;;4977328;28;20062;-14
2022/05/27 10:00:41;;;;;;;0.20;0.20;;;20.10;61.50;;;;;;4976143;28;20054;-14
2022/05/27 10:03:26;;;;;;;0.28;0.20;;;20.10;61.50;;;;;;4975742;28;20039;-15
2022/05/27 10:05:53;;;;;;;0.25;0.25;;;20.10;61.60;;;;;;4977305;28;20047;-15
2022/05/27 10:08:27;;;;;;;0.30;0.20;;;20.10;61.50;;;;;;4976512;28;20051;-15
2022/05/27 10:11:06;;;;;;;0.30;0.30;;;20.10;61.60;;;;;;4976139;28;20054;-14
2022/05/27 10:13:34;;;;;;;0.25;0.20;;;20.10;61.50;;;;;;4976492;28;20794;-15
2022/05/27 10:16:05;;;;;;;0.40;0.30;;;20.10;61.50;;;;;;4976519;28;20089;-14
2022/05/27 10:18:30;;;;;;;0.17;0.10;;;20.10;61.50;;;;;;4975841;28;20046;-15
2022/05/27 10:21:01;;;;;;;0.50;0.30;;;20.10;61.50;;;;;;4975734;28;20531;-16
2022/05/27 10:23:38;;;;;;;0.52;0.25;;;20.10;61.50;;;;;;4976757;28;20612;-14
2022/05/27 10:26:25;;;;;;;0.40;0.40;;;20.10;61.60;;;;;;4976108;28;20038;-14
2022/05/27 10:29:07;;;;;;;0.13;0.10;;;20.10;61.60;;;;;;4971120;28;20051;-15
2022/05/27 10:31:33;;;;;;;0.30;0.30;;;20.10;61.70;;;;;;4957092;28;20051;-14
2022/05/27 10:34:00;;;;;;;0.32;0.32;;;20.10;61.60;;;;;;4956824;28;20050;-17
2022/05/27 10:36:44;;;;;;;0.32;0.28;;;20.10;61.60;;;;;;4957729;28;20046;-15
2022/05/27 10:39:26;;;;;;;0.20;0.20;;;20.10;61.80;;;;;;4968327;28;20058;-14
2022/05/27 10:42:13;;;;;;;0.47;0.30;;;20.20;61.50;;;;;;4970261;28;20047;-14
2022/05/27 10:44:57;;;;;;;0.20;0.20;;;20.20;61.50;;;;;;4957037;28;20501;-14
2022/05/27 10:47:42;;;;;;;0.17;0.13;;;20.20;61.30;;;;;;4940695;28;20050;-15
2022/05/27 10:50:23;;;;;;;0.25;0.20;;;20.20;61.40;;;;;;4956753;28;20035;-14
2022/05/27 10:53:11;;;;;;;0.43;0.30;;;20.20;61.50;;;;;;4956046;28;20043;-14
2022/05/27 10:55:42;;;;;;;0.35;0.25;;;20.20;61.60;;;;;;4976384;28;20043;-14
2022/05/27 11:04:40;;;;;;;0.20;0.20;;;20.20;61.70;;;;;;4975936;28;20085;-14
2022/05/27 11:07:20;;;;;;;1.02;0.52;;;20.20;61.80;;;;;;4976195;28;20102;-15
2022/05/27 11:09:53;;;;;;;1.02;0.17;;;20.20;62.00;;;;;;4980259;28;20043;-15
2022/05/27 11:15:10;;;;;;;0.20;0.20;;;20.20;61.90;;;;;;4978568;28;20395;-14
2022/05/27 11:16:00;;;;;;;0.25;0.20;;;20.20;62.00;;;;;;4963272;28;20138;-14
2022/05/27 11:19:11;;;;;;;0.60;0.20;;;20.20;61.80;;;;;;4932773;28;20043;-15
2022/05/27 11:22:01;;;;;;;0.22;0.10;;;20.20;61.80;;;;;;4952453;28;20521;-14
2022/05/27 11:24:58;;;;;;;0.22;0.22;;;20.20;61.80;;;;;;4979525;28;20051;-15
2022/05/27 11:27:30;;;;;;;0.13;0.13;;;20.30;61.70;;;;;;4975791;28;20451;-14
2022/05/27 11:30:00;;;;;;;0.90;0.20;;;20.30;61.70;;;;;;4960358;28;20039;-14
2022/05/27 11:32:55;;;;;;;0.30;0.20;;;20.30;61.70;;;;;;4960264;28;20053;-14
2022/05/27 11:35:25;;;;;;;0.10;0.10;;;20.30;61.70;;;;;;4973303;28;22249;-15
2022/05/27 11:38:25;;;;;;;0.20;0.20;;;20.30;61.70;;;;;;4978593;28;20046;-15
2022/05/27 11:41:00;;;;;;;0.15;0.13;;;20.30;61.70;;;;;;4949093;28;20508;-15
2022/05/27 11:43:37;;;;;;;0.10;0.10;;;20.30;61.70;;;;;;4940878;29;20047;-15
2022/05/27 11:46:22;;;;;;;0.30;0.30;;;20.30;61.70;;;;;;4940079;28;20138;-14
2022/05/27 11:49:08;;;;;;;0.20;0.10;;;20.30;61.60;;;;;;4941102;29;20110;-14
2022/05/27 11:51:46;;;;;;;0.10;0.10;;;20.30;61.70;;;;;;4945210;28;20049;-14
2022/05/27 11:54:30;;;;;;;0.45;0.45;;;20.30;61.60;;;;;;4958481;28;20047;-13
2022/05/27 11:56:59;;;;;;;0.30;0.30;;;20.30;61.80;;;;;;4959997;28;20047;-14
2022/05/27 11:59:27;;;;;;;0.15;0.10;;;20.30;61.80;;;;;;4970493;28;20057;-15
2022/05/27 12:02:25;;;;;;;0.10;0.00;;;20.40;61.80;;;;;;4978856;28;20066;-15
2022/05/27 12:04:51;;;;;;;0.10;0.10;;;20.30;61.80;;;;;;4971090;28;20082;-14
2022/05/27 12:07:16;;;;;;;0.17;0.17;;;20.30;61.90;;;;;;4959350;28;20043;-15
2022/05/27 12:10:11;;;;;;;0.20;0.20;;;20.40;61.80;;;;;;4966148;28;20054;-14
2022/05/27 12:12:46;;;;;;;0.20;0.10;;;20.30;61.70;;;;;;4977476;28;20471;-14
2022/05/27 12:15:23;;;;;;;0.10;0.10;;;20.30;61.60;;;;;;4978734;28;20571;-14
2022/05/27 12:17:50;;;;;;;0.20;0.15;;;20.40;61.80;;;;;;4956331;28;20112;-15
2022/05/27 12:20:22;;;;;;;0.30;0.15;;;20.30;61.70;;;;;;4973188;28;20464;-15
2022/05/27 12:22:49;;;;;;;0.50;0.20;;;20.30;61.70;;;;;;4974008;28;20055;-15
2022/05/27 12:25:46;;;;;;;0.20;0.10;;;20.30;61.80;;;;;;4973681;28;20040;-15
2022/05/27 12:28:13;;;;;;;0.10;0.10;;;20.40;61.90;;;;;;4973575;28;20034;-14
2022/05/27 12:30:41;;;;;;;0.10;0.10;;;20.30;61.90;;;;;;4961839;28;20437;-14
2022/05/27 12:33:17;;;;;;;0.10;0.10;;;20.40;61.90;;;;;;4976579;28;20128;-16
2022/05/27 12:35:44;;;;;;;0.20;0.20;;;20.40;61.90;;;;;;4959568;28;20489;-14
2022/05/27 12:38:27;;;;;;;0.00;0.00;;;20.40;62.00;;;;;;4957605;28;20086;-14
2022/05/27 12:41:07;;;;;;;0.20;0.20;;;20.40;61.90;;;;;;4970019;28;20057;-15
2022/05/27 12:43:37;;;;;;;0.08;0.08;;;20.40;61.90;;;;;;4978297;28;20432;-15
2022/05/27 12:46:03;;;;;;;0.20;0.10;;;20.40;61.70;;;;;;4977394;28;20057;-14
2022/05/27 12:48:34;;;;;;;0.20;0.20;;;20.40;61.80;;;;;;4977348;28;20500;-15
2022/05/27 12:51:07;;;;;;;0.32;0.30;;;20.40;61.70;;;;;;4978569;28;20042;-15
2022/05/27 12:53:46;;;;;;;0.10;0.10;;;20.40;61.80;;;;;;4978049;28;20042;-15
2022/05/27 13:02:33;;;;;;;0.10;0.10;;;20.40;61.80;;;;;;4964664;28;20052;-14
2022/05/27 13:05:04;;;;;;;0.10;0.10;;;20.40;61.80;;;;;;4978339;28;20125;-14
2022/05/27 13:07:35;;;;;;;0.10;0.10;;;20.40;61.80;;;;;;4975617;28;20051;-16
2022/05/27 13:10:16;;;;;;;0.10;0.10;;;20.40;61.80;;;;;;4978068;28;20050;-13
2022/05/27 13:12:44;;;;;;;0.10;0.10;;;20.50;61.90;;;;;;4977628;28;20047;-13
2022/05/27 13:15:20;;;;;;;0.10;0.10;;;20.40;61.80;;;;;;4977536;28;20046;-13
2022/05/27 13:17:51;;;;;;;0.10;0.10;;;20.50;61.80;;;;;;4977472;28;20076;-13
2022/05/27 13:20:16;;;;;;;0.17;0.17;;;20.50;61.70;;;;;;4976905;28;20109;-14
2022/05/27 13:23:06;;;;;;;0.10;0.10;;;20.50;61.70;;;;;;4977829;28;20047;-13
2022/05/27 13:25:35;;;;;;;0.10;0.10;;;20.50;61.70;;;;;;4977233;28;20039;-13
2022/05/27 13:28:05;;;;;;;1.17;0.00;;;20.50;61.70;;;;;;4962984;28;20047;-13
2022/05/27 13:30:49;;;;;;;0.10;0.10;;;20.50;61.80;;;;;;4956670;28;20122;-14
2022/05/27 13:33:16;;;;;;;0.17;0.17;;;20.50;61.80;;;;;;4958008;28;20513;-13
2022/05/27 13:35:46;;;;;;;0.00;0.00;;;20.50;61.80;;;;;;4980976;28;20039;-13
2022/05/27 13:38:17;;;;;;;0.10;0.10;;;20.50;61.80;;;;;;4975783;28;20092;-13
2022/05/27 13:40:43;;;;;;;0.10;0.10;;;20.50;61.80;;;;;;4976174;28;20556;-14
2022/05/27 13:43:17;;;;;;;0.10;0.10;;;20.50;61.70;;;;;;4975679;28;20069;-14
2022/05/27 13:45:58;;;;;;;0.38;0.10;;;20.50;61.70;;;;;;4991907;28;20066;-14
2022/05/27 13:48:31;;;;;;;0.10;0.10;;;20.50;61.80;;;;;;4956784;28;20042;-13